sensor_id;sensor_type;location;lat;lon;timestamp;P1;durP1;ratioP1;P2;durP2;ratioP2
61391;SDS011;47261;52.892;5.738;2022-09-12T00:00:47;49.97;;;19.48;;
61391;SDS011;47261;52.892;5.738;2022-09-12T00:03:13;48.35;;;19.42;;
61391;SDS011;47261;52.892;5.738;2022-09-12T00:05:46;45.27;;;18.80;;
61391;SDS011;47261;52.892;5.738;2022-09-12T00:08:12;57.30;;;20.25;;
61391;SDS011;47261;52.892;5.738;2022-09-12T00:10:38;55.22;;;19.88;;
61391;SDS011;47261;52.892;5.738;2022-09-12T00:13:05;55.30;;;19.52;;
61391;SDS011;47261;52.892;5.738;2022-09-12T00:15:32;49.13;;;19.08;;
61391;SDS011;47261;52.892;5.738;2022-09-12T00:18:03;47.17;;;18.13;;
61391;SDS011;47261;52.892;5.738;2022-09-12T00:20:28;64.90;;;18.75;;
61391;SDS011;47261;52.892;5.738;2022-09-12T00:22:54;77.83;;;17.17;;
61391;SDS011;47261;52.892;5.738;2022-09-12T00:25:20;74.53;;;18.83;;
61391;SDS011;47261;52.892;5.738;2022-09-12T00:27:45;85.20;;;18.80;;
61391;SDS011;47261;52.892;5.738;2022-09-12T00:30:11;59.53;;;18.63;;
61391;SDS011;47261;52.892;5.738;2022-09-12T00:32:37;50.60;;;18.03;;
61391;SDS011;47261;52.892;5.738;2022-09-12T00:35:02;42.55;;;18.42;;
61391;SDS011;47261;52.892;5.738;2022-09-12T00:37:28;45.80;;;18.90;;
61391;SDS011;47261;52.892;5.738;2022-09-12T00:39:54;49.67;;;19.95;;
61391;SDS011;47261;52.892;5.738;2022-09-12T00:42:19;46.33;;;20.17;;
61391;SDS011;47261;52.892;5.738;2022-09-12T00:44:46;48.35;;;17.90;;
61391;SDS011;47261;52.892;5.738;2022-09-12T00:49:54;40.75;;;18.92;;
61391;SDS011;47261;52.892;5.738;2022-09-12T00:52:27;43.53;;;19.98;;
61391;SDS011;47261;52.892;5.738;2022-09-12T01:00:47;42.93;;;19.30;;
61391;SDS011;47261;52.892;5.738;2022-09-12T01:03:14;39.75;;;19.08;;
61391;SDS011;47261;52.892;5.738;2022-09-12T01:05:43;45.15;;;19.95;;
61391;SDS011;47261;52.892;5.738;2022-09-12T01:08:17;45.13;;;19.17;;
61391;SDS011;47261;52.892;5.738;2022-09-12T01:10:44;40.88;;;19.88;;
61391;SDS011;47261;52.892;5.738;2022-09-12T01:13:10;36.07;;;18.07;;
61391;SDS011;47261;52.892;5.738;2022-09-12T01:15:37;36.30;;;17.85;;
61391;SDS011;47261;52.892;5.738;2022-09-12T01:18:07;35.10;;;18.15;;
61391;SDS011;47261;52.892;5.738;2022-09-12T01:20:45;31.63;;;17.20;;
61391;SDS011;47261;52.892;5.738;2022-09-12T01:23:27;35.40;;;17.42;;
61391;SDS011;47261;52.892;5.738;2022-09-12T01:26:14;28.73;;;16.17;;
61391;SDS011;47261;52.892;5.738;2022-09-12T01:44:34;32.25;;;17.50;;
61391;SDS011;47261;52.892;5.738;2022-09-12T01:47:12;29.70;;;16.75;;
61391;SDS011;47261;52.892;5.738;2022-09-12T01:49:54;35.60;;;18.67;;
61391;SDS011;47261;52.892;5.738;2022-09-12T01:52:36;32.53;;;17.57;;
61391;SDS011;47261;52.892;5.738;2022-09-12T01:55:27;33.47;;;17.27;;
61391;SDS011;47261;52.892;5.738;2022-09-12T01:58:03;30.05;;;17.00;;
61391;SDS011;47261;52.892;5.738;2022-09-12T02:00:37;30.08;;;17.60;;
61391;SDS011;47261;52.892;5.738;2022-09-12T02:03:14;34.38;;;17.70;;
61391;SDS011;47261;52.892;5.738;2022-09-12T02:06:04;31.83;;;19.40;;
61391;SDS011;47261;52.892;5.738;2022-09-12T02:08:51;33.25;;;18.77;;
61391;SDS011;47261;52.892;5.738;2022-09-12T02:11:19;35.00;;;19.80;;
61391;SDS011;47261;52.892;5.738;2022-09-12T02:14:02;36.17;;;20.40;;
61391;SDS011;47261;52.892;5.738;2022-09-12T02:16:33;37.90;;;20.25;;
61391;SDS011;47261;52.892;5.738;2022-09-12T02:19:38;34.87;;;18.57;;
61391;SDS011;47261;52.892;5.738;2022-09-12T02:22:00;32.67;;;18.23;;
61391;SDS011;47261;52.892;5.738;2022-09-12T02:24:32;35.22;;;19.35;;
61391;SDS011;47261;52.892;5.738;2022-09-12T02:29:34;39.35;;;20.00;;
61391;SDS011;47261;52.892;5.738;2022-09-12T02:32:04;36.00;;;18.83;;
61391;SDS011;47261;52.892;5.738;2022-09-12T02:34:47;36.55;;;20.02;;
61391;SDS011;47261;52.892;5.738;2022-09-12T02:37:21;34.88;;;19.42;;
61391;SDS011;47261;52.892;5.738;2022-09-12T02:39:50;35.15;;;20.27;;
61391;SDS011;47261;52.892;5.738;2022-09-12T02:42:19;35.83;;;20.17;;
61391;SDS011;47261;52.892;5.738;2022-09-12T02:44:45;34.27;;;19.23;;
61391;SDS011;47261;52.892;5.738;2022-09-12T02:47:17;38.35;;;20.30;;
61391;SDS011;47261;52.892;5.738;2022-09-12T02:49:49;39.53;;;20.75;;
61391;SDS011;47261;52.892;5.738;2022-09-12T02:52:15;34.45;;;19.40;;
61391;SDS011;47261;52.892;5.738;2022-09-12T02:54:41;39.57;;;21.13;;
61391;SDS011;47261;52.892;5.738;2022-09-12T02:57:18;35.97;;;19.52;;
61391;SDS011;47261;52.892;5.738;2022-09-12T02:59:46;37.03;;;20.73;;
61391;SDS011;47261;52.892;5.738;2022-09-12T03:04:46;45.92;;;21.85;;
61391;SDS011;47261;52.892;5.738;2022-09-12T03:07:37;39.57;;;20.70;;
61391;SDS011;47261;52.892;5.738;2022-09-12T03:23:36;36.67;;;20.48;;
61391;SDS011;47261;52.892;5.738;2022-09-12T03:26:14;34.67;;;19.55;;
61391;SDS011;47261;52.892;5.738;2022-09-12T03:28:45;32.87;;;19.63;;
61391;SDS011;47261;52.892;5.738;2022-09-12T03:31:15;37.20;;;20.08;;
61391;SDS011;47261;52.892;5.738;2022-09-12T03:33:42;37.00;;;20.88;;
61391;SDS011;47261;52.892;5.738;2022-09-12T03:36:14;37.45;;;20.55;;
61391;SDS011;47261;52.892;5.738;2022-09-12T03:38:42;38.42;;;20.33;;
61391;SDS011;47261;52.892;5.738;2022-09-12T03:41:08;34.63;;;19.23;;
61391;SDS011;47261;52.892;5.738;2022-09-12T03:43:33;42.73;;;20.53;;
61391;SDS011;47261;52.892;5.738;2022-09-12T03:45:59;36.90;;;18.58;;
61391;SDS011;47261;52.892;5.738;2022-09-12T03:48:24;37.93;;;20.80;;
61391;SDS011;47261;52.892;5.738;2022-09-12T03:50:50;38.67;;;19.67;;
61391;SDS011;47261;52.892;5.738;2022-09-12T03:53:16;40.53;;;20.23;;
61391;SDS011;47261;52.892;5.738;2022-09-12T03:55:41;38.80;;;20.73;;
61391;SDS011;47261;52.892;5.738;2022-09-12T03:58:07;40.35;;;20.90;;
61391;SDS011;47261;52.892;5.738;2022-09-12T04:00:32;42.47;;;20.83;;
61391;SDS011;47261;52.892;5.738;2022-09-12T04:02:58;36.93;;;20.33;;
61391;SDS011;47261;52.892;5.738;2022-09-12T04:05:24;39.03;;;20.23;;
61391;SDS011;47261;52.892;5.738;2022-09-12T04:07:50;36.50;;;20.17;;
61391;SDS011;47261;52.892;5.738;2022-09-12T04:10:16;37.72;;;20.00;;
61391;SDS011;47261;52.892;5.738;2022-09-12T04:12:42;36.47;;;19.00;;
61391;SDS011;47261;52.892;5.738;2022-09-12T04:15:08;42.65;;;19.67;;
61391;SDS011;47261;52.892;5.738;2022-09-12T04:17:34;38.38;;;20.20;;
61391;SDS011;47261;52.892;5.738;2022-09-12T04:20:00;40.60;;;20.77;;
61391;SDS011;47261;52.892;5.738;2022-09-12T04:22:26;40.22;;;20.35;;
61391;SDS011;47261;52.892;5.738;2022-09-12T04:24:53;35.83;;;20.17;;
61391;SDS011;47261;52.892;5.738;2022-09-12T04:27:19;39.30;;;20.07;;
61391;SDS011;47261;52.892;5.738;2022-09-12T04:29:45;38.50;;;20.13;;
61391;SDS011;47261;52.892;5.738;2022-09-12T04:32:10;34.90;;;18.90;;
61391;SDS011;47261;52.892;5.738;2022-09-12T04:34:36;36.30;;;19.33;;
61391;SDS011;47261;52.892;5.738;2022-09-12T04:37:03;41.70;;;20.55;;
61391;SDS011;47261;52.892;5.738;2022-09-12T04:39:28;33.57;;;18.03;;
61391;SDS011;47261;52.892;5.738;2022-09-12T04:41:54;34.60;;;18.52;;
61391;SDS011;47261;52.892;5.738;2022-09-12T04:44:20;34.97;;;18.47;;
61391;SDS011;47261;52.892;5.738;2022-09-12T04:46:46;34.13;;;18.10;;
61391;SDS011;47261;52.892;5.738;2022-09-12T04:49:13;35.30;;;19.08;;
61391;SDS011;47261;52.892;5.738;2022-09-12T04:51:43;32.90;;;18.15;;
61391;SDS011;47261;52.892;5.738;2022-09-12T04:54:11;32.43;;;18.03;;
61391;SDS011;47261;52.892;5.738;2022-09-12T04:56:42;34.20;;;18.83;;
61391;SDS011;47261;52.892;5.738;2022-09-12T04:59:09;31.75;;;18.65;;
61391;SDS011;47261;52.892;5.738;2022-09-12T05:01:36;38.92;;;19.75;;
61391;SDS011;47261;52.892;5.738;2022-09-12T05:04:02;32.67;;;18.67;;
61391;SDS011;47261;52.892;5.738;2022-09-12T05:06:29;34.22;;;18.05;;
61391;SDS011;47261;52.892;5.738;2022-09-12T05:08:57;29.80;;;17.13;;
61391;SDS011;47261;52.892;5.738;2022-09-12T05:11:25;29.20;;;16.27;;
61391;SDS011;47261;52.892;5.738;2022-09-12T05:13:53;29.48;;;17.45;;
61391;SDS011;47261;52.892;5.738;2022-09-12T05:16:19;32.25;;;16.90;;
61391;SDS011;47261;52.892;5.738;2022-09-12T05:18:46;28.35;;;16.77;;
61391;SDS011;47261;52.892;5.738;2022-09-12T05:21:13;29.33;;;16.57;;
61391;SDS011;47261;52.892;5.738;2022-09-12T05:23:41;31.63;;;17.25;;
61391;SDS011;47261;52.892;5.738;2022-09-12T05:26:07;33.33;;;16.92;;
61391;SDS011;47261;52.892;5.738;2022-09-12T05:28:38;29.75;;;16.42;;
61391;SDS011;47261;52.892;5.738;2022-09-12T05:31:05;29.17;;;15.63;;
61391;SDS011;47261;52.892;5.738;2022-09-12T05:33:33;28.13;;;15.53;;
61391;SDS011;47261;52.892;5.738;2022-09-12T05:35:59;27.85;;;16.42;;
61391;SDS011;47261;52.892;5.738;2022-09-12T05:38:25;28.88;;;16.13;;
61391;SDS011;47261;52.892;5.738;2022-09-12T05:40:53;30.67;;;16.48;;
61391;SDS011;47261;52.892;5.738;2022-09-12T05:43:27;29.88;;;16.65;;
61391;SDS011;47261;52.892;5.738;2022-09-12T05:45:59;32.03;;;17.27;;
61391;SDS011;47261;52.892;5.738;2022-09-12T05:48:25;28.80;;;16.90;;
61391;SDS011;47261;52.892;5.738;2022-09-12T05:50:57;30.33;;;16.88;;
61391;SDS011;47261;52.892;5.738;2022-09-12T05:53:38;36.40;;;17.40;;
61391;SDS011;47261;52.892;5.738;2022-09-12T05:56:05;31.57;;;17.70;;
61391;SDS011;47261;52.892;5.738;2022-09-12T05:58:42;32.67;;;17.63;;
61391;SDS011;47261;52.892;5.738;2022-09-12T06:01:10;36.00;;;17.88;;
61391;SDS011;47261;52.892;5.738;2022-09-12T06:03:39;35.22;;;18.27;;
61391;SDS011;47261;52.892;5.738;2022-09-12T06:06:09;34.83;;;18.85;;
61391;SDS011;47261;52.892;5.738;2022-09-12T06:08:38;33.03;;;18.27;;
61391;SDS011;47261;52.892;5.738;2022-09-12T06:11:05;37.65;;;19.30;;
61391;SDS011;47261;52.892;5.738;2022-09-12T06:13:32;35.60;;;19.80;;
61391;SDS011;47261;52.892;5.738;2022-09-12T06:18:37;35.10;;;19.90;;
61391;SDS011;47261;52.892;5.738;2022-09-12T06:21:04;39.27;;;20.90;;
61391;SDS011;47261;52.892;5.738;2022-09-12T06:23:35;38.28;;;20.00;;
61391;SDS011;47261;52.892;5.738;2022-09-12T06:26:01;37.92;;;21.45;;
61391;SDS011;47261;52.892;5.738;2022-09-12T06:28:28;40.35;;;22.08;;
61391;SDS011;47261;52.892;5.738;2022-09-12T06:31:00;42.70;;;22.25;;
61391;SDS011;47261;52.892;5.738;2022-09-12T06:33:30;44.70;;;22.93;;
61391;SDS011;47261;52.892;5.738;2022-09-12T06:36:01;44.03;;;22.70;;
61391;SDS011;47261;52.892;5.738;2022-09-12T06:38:28;45.95;;;23.38;;
61391;SDS011;47261;52.892;5.738;2022-09-12T06:40:54;43.90;;;23.05;;
61391;SDS011;47261;52.892;5.738;2022-09-12T06:43:21;43.67;;;22.17;;
61391;SDS011;47261;52.892;5.738;2022-09-12T06:45:47;44.53;;;23.42;;
61391;SDS011;47261;52.892;5.738;2022-09-12T06:48:13;46.60;;;23.42;;
61391;SDS011;47261;52.892;5.738;2022-09-12T06:50:39;45.17;;;23.67;;
61391;SDS011;47261;52.892;5.738;2022-09-12T06:53:04;45.95;;;23.13;;
61391;SDS011;47261;52.892;5.738;2022-09-12T06:55:30;46.13;;;24.13;;
61391;SDS011;47261;52.892;5.738;2022-09-12T06:57:55;45.80;;;24.20;;
61391;SDS011;47261;52.892;5.738;2022-09-12T07:00:22;44.28;;;22.60;;
61391;SDS011;47261;52.892;5.738;2022-09-12T07:02:47;47.87;;;23.07;;
61391;SDS011;47261;52.892;5.738;2022-09-12T07:05:13;47.80;;;23.40;;
61391;SDS011;47261;52.892;5.738;2022-09-12T07:07:39;51.90;;;25.75;;
61391;SDS011;47261;52.892;5.738;2022-09-12T07:10:04;51.53;;;25.50;;
61391;SDS011;47261;52.892;5.738;2022-09-12T07:12:30;48.50;;;24.67;;
61391;SDS011;47261;52.892;5.738;2022-09-12T07:14:56;54.87;;;26.57;;
61391;SDS011;47261;52.892;5.738;2022-09-12T07:17:22;55.25;;;27.35;;
61391;SDS011;47261;52.892;5.738;2022-09-12T07:19:47;53.23;;;27.27;;
61391;SDS011;47261;52.892;5.738;2022-09-12T07:22:13;56.53;;;27.93;;
61391;SDS011;47261;52.892;5.738;2022-09-12T07:24:38;54.60;;;27.73;;
61391;SDS011;47261;52.892;5.738;2022-09-12T07:27:05;64.18;;;30.35;;
61391;SDS011;47261;52.892;5.738;2022-09-12T07:29:30;57.57;;;29.20;;
61391;SDS011;47261;52.892;5.738;2022-09-12T07:31:56;65.90;;;31.25;;
61391;SDS011;47261;52.892;5.738;2022-09-12T07:34:22;63.37;;;30.93;;
61391;SDS011;47261;52.892;5.738;2022-09-12T07:36:48;56.47;;;28.58;;
61391;SDS011;47261;52.892;5.738;2022-09-12T07:39:13;53.73;;;25.93;;
61391;SDS011;47261;52.892;5.738;2022-09-12T07:41:39;62.97;;;29.50;;
61391;SDS011;47261;52.892;5.738;2022-09-12T07:44:04;60.22;;;31.38;;
61391;SDS011;47261;52.892;5.738;2022-09-12T07:46:31;67.70;;;33.33;;
61391;SDS011;47261;52.892;5.738;2022-09-12T07:48:58;68.93;;;33.27;;
61391;SDS011;47261;52.892;5.738;2022-09-12T07:51:25;67.05;;;33.05;;
61391;SDS011;47261;52.892;5.738;2022-09-12T07:53:53;68.45;;;34.88;;
61391;SDS011;47261;52.892;5.738;2022-09-12T07:56:20;72.15;;;35.10;;
61391;SDS011;47261;52.892;5.738;2022-09-12T07:58:46;73.85;;;34.65;;
61391;SDS011;47261;52.892;5.738;2022-09-12T08:01:13;67.03;;;31.00;;
61391;SDS011;47261;52.892;5.738;2022-09-12T08:03:42;76.90;;;34.83;;
61391;SDS011;47261;52.892;5.738;2022-09-12T08:06:10;77.20;;;35.33;;
61391;SDS011;47261;52.892;5.738;2022-09-12T08:08:38;78.25;;;36.22;;
61391;SDS011;47261;52.892;5.738;2022-09-12T08:11:05;73.38;;;36.78;;
61391;SDS011;47261;52.892;5.738;2022-09-12T08:13:33;62.40;;;33.50;;
61391;SDS011;47261;52.892;5.738;2022-09-12T08:16:00;65.78;;;32.65;;
61391;SDS011;47261;52.892;5.738;2022-09-12T08:18:28;70.47;;;33.90;;
61391;SDS011;47261;52.892;5.738;2022-09-12T08:20:55;72.15;;;34.17;;
61391;SDS011;47261;52.892;5.738;2022-09-12T08:23:25;66.00;;;33.63;;
61391;SDS011;47261;52.892;5.738;2022-09-12T08:25:55;69.30;;;33.20;;
61391;SDS011;47261;52.892;5.738;2022-09-12T08:28:21;74.07;;;34.92;;
61391;SDS011;47261;52.892;5.738;2022-09-12T08:30:48;71.38;;;33.75;;
61391;SDS011;47261;52.892;5.738;2022-09-12T08:33:14;67.00;;;32.90;;
61391;SDS011;47261;52.892;5.738;2022-09-12T08:35:39;62.00;;;30.60;;
61391;SDS011;47261;52.892;5.738;2022-09-12T08:38:05;59.90;;;29.83;;
61391;SDS011;47261;52.892;5.738;2022-09-12T08:40:31;63.03;;;31.90;;
61391;SDS011;47261;52.892;5.738;2022-09-12T08:43:15;64.47;;;30.80;;
61391;SDS011;47261;52.892;5.738;2022-09-12T08:45:59;54.88;;;28.15;;
61391;SDS011;47261;52.892;5.738;2022-09-12T08:48:32;55.72;;;28.73;;
61391;SDS011;47261;52.892;5.738;2022-09-12T08:51:00;50.80;;;25.30;;
61391;SDS011;47261;52.892;5.738;2022-09-12T08:53:29;48.78;;;24.50;;
61391;SDS011;47261;52.892;5.738;2022-09-12T08:55:57;49.53;;;26.98;;
61391;SDS011;47261;52.892;5.738;2022-09-12T08:58:24;51.13;;;26.48;;
61391;SDS011;47261;52.892;5.738;2022-09-12T09:06:48;49.28;;;26.52;;
61391;SDS011;47261;52.892;5.738;2022-09-12T09:10:06;39.95;;;22.40;;
61391;SDS011;47261;52.892;5.738;2022-09-12T09:12:51;40.50;;;21.95;;
61391;SDS011;47261;52.892;5.738;2022-09-12T09:15:31;37.88;;;20.20;;
61391;SDS011;47261;52.892;5.738;2022-09-12T09:18:02;37.83;;;19.73;;
61391;SDS011;47261;52.892;5.738;2022-09-12T09:20:37;44.35;;;22.25;;
61391;SDS011;47261;52.892;5.738;2022-09-12T09:25:41;37.58;;;20.02;;
61391;SDS011;47261;52.892;5.738;2022-09-12T09:31:01;40.37;;;20.80;;
61391;SDS011;47261;52.892;5.738;2022-09-12T09:33:30;36.33;;;19.58;;
61391;SDS011;47261;52.892;5.738;2022-09-12T09:38:37;33.90;;;16.38;;
61391;SDS011;47261;52.892;5.738;2022-09-12T09:43:55;28.83;;;15.40;;
61391;SDS011;47261;52.892;5.738;2022-09-12T09:46:21;26.65;;;12.90;;
61391;SDS011;47261;52.892;5.738;2022-09-12T09:48:49;34.05;;;18.00;;
61391;SDS011;47261;52.892;5.738;2022-09-12T09:51:24;34.20;;;19.00;;
61391;SDS011;47261;52.892;5.738;2022-09-12T09:53:56;28.90;;;15.27;;
61391;SDS011;47261;52.892;5.738;2022-09-12T09:56:29;28.92;;;17.02;;
61391;SDS011;47261;52.892;5.738;2022-09-12T09:59:11;29.98;;;16.30;;
61391;SDS011;47261;52.892;5.738;2022-09-12T10:04:26;28.52;;;16.33;;
61391;SDS011;47261;52.892;5.738;2022-09-12T10:07:03;30.20;;;15.60;;
61391;SDS011;47261;52.892;5.738;2022-09-12T10:09:33;31.25;;;17.45;;
61391;SDS011;47261;52.892;5.738;2022-09-12T10:14:56;32.70;;;18.80;;
61391;SDS011;47261;52.892;5.738;2022-09-12T10:17:31;37.15;;;18.42;;
61391;SDS011;47261;52.892;5.738;2022-09-12T10:22:59;29.58;;;15.32;;
61391;SDS011;47261;52.892;5.738;2022-09-12T10:25:27;29.92;;;15.57;;
61391;SDS011;47261;52.892;5.738;2022-09-12T10:27:55;30.35;;;15.10;;
61391;SDS011;47261;52.892;5.738;2022-09-12T10:30:23;29.58;;;14.57;;
61391;SDS011;47261;52.892;5.738;2022-09-12T10:32:52;31.73;;;16.27;;
61391;SDS011;47261;52.892;5.738;2022-09-12T10:35:28;20.65;;;10.98;;
61391;SDS011;47261;52.892;5.738;2022-09-12T10:38:06;31.52;;;16.45;;
61391;SDS011;47261;52.892;5.738;2022-09-12T10:41:05;29.17;;;15.13;;
61391;SDS011;47261;52.892;5.738;2022-09-12T10:48:47;26.20;;;15.23;;
61391;SDS011;47261;52.892;5.738;2022-09-12T10:51:34;23.10;;;12.13;;
61391;SDS011;47261;52.892;5.738;2022-09-12T10:54:00;22.70;;;12.52;;
61391;SDS011;47261;52.892;5.738;2022-09-12T11:01:57;25.52;;;14.88;;
61391;SDS011;47261;52.892;5.738;2022-09-12T11:10:13;23.60;;;12.63;;
61391;SDS011;47261;52.892;5.738;2022-09-12T11:18:06;26.45;;;15.30;;
61391;SDS011;47261;52.892;5.738;2022-09-12T11:21:08;27.67;;;14.90;;
61391;SDS011;47261;52.892;5.738;2022-09-12T11:24:13;25.00;;;14.73;;
61391;SDS011;47261;52.892;5.738;2022-09-12T11:26:53;20.37;;;11.43;;
61391;SDS011;47261;52.892;5.738;2022-09-12T11:29:56;10.15;;;5.47;;
61391;SDS011;47261;52.892;5.738;2022-09-12T11:46:19;8.90;;;5.47;;
61391;SDS011;47261;52.892;5.738;2022-09-12T11:48:58;9.98;;;5.60;;
61391;SDS011;47261;52.892;5.738;2022-09-12T11:51:36;13.15;;;6.78;;
61391;SDS011;47261;52.892;5.738;2022-09-12T11:54:08;12.23;;;7.43;;
61391;SDS011;47261;52.892;5.738;2022-09-12T11:56:42;12.85;;;6.15;;
61391;SDS011;47261;52.892;5.738;2022-09-12T11:59:13;10.63;;;6.70;;
61391;SDS011;47261;52.892;5.738;2022-09-12T12:02:00;9.27;;;5.88;;
61391;SDS011;47261;52.892;5.738;2022-09-12T12:04:36;10.30;;;5.28;;
61391;SDS011;47261;52.892;5.738;2022-09-12T12:07:10;14.20;;;7.63;;
61391;SDS011;47261;52.892;5.738;2022-09-12T12:09:43;15.63;;;7.65;;
61391;SDS011;47261;52.892;5.738;2022-09-12T12:12:13;12.50;;;8.02;;
61391;SDS011;47261;52.892;5.738;2022-09-12T12:14:45;16.05;;;9.32;;
61391;SDS011;47261;52.892;5.738;2022-09-12T12:17:14;17.67;;;9.50;;
61391;SDS011;47261;52.892;5.738;2022-09-12T12:19:42;15.03;;;7.77;;
61391;SDS011;47261;52.892;5.738;2022-09-12T12:22:14;17.38;;;8.73;;
61391;SDS011;47261;52.892;5.738;2022-09-12T12:25:01;17.00;;;9.13;;
61391;SDS011;47261;52.892;5.738;2022-09-12T12:38:01;16.60;;;10.23;;
61391;SDS011;47261;52.892;5.738;2022-09-12T12:40:28;19.38;;;9.38;;
61391;SDS011;47261;52.892;5.738;2022-09-12T12:47:59;17.90;;;10.50;;
61391;SDS011;47261;52.892;5.738;2022-09-12T12:50:31;16.57;;;9.50;;
61391;SDS011;47261;52.892;5.738;2022-09-12T12:52:58;17.50;;;10.50;;
61391;SDS011;47261;52.892;5.738;2022-09-12T13:03:33;17.88;;;11.20;;
61391;SDS011;47261;52.892;5.738;2022-09-12T13:06:02;18.40;;;9.02;;
61391;SDS011;47261;52.892;5.738;2022-09-12T13:08:38;17.58;;;11.05;;
61391;SDS011;47261;52.892;5.738;2022-09-12T13:11:12;17.17;;;11.00;;
61391;SDS011;47261;52.892;5.738;2022-09-12T13:13:43;17.83;;;10.88;;
61391;SDS011;47261;52.892;5.738;2022-09-12T13:19:16;19.75;;;11.23;;
61391;SDS011;47261;52.892;5.738;2022-09-12T13:21:55;13.43;;;8.07;;
61391;SDS011;47261;52.892;5.738;2022-09-12T13:24:21;18.67;;;9.37;;
61391;SDS011;47261;52.892;5.738;2022-09-12T13:26:47;15.93;;;9.40;;
61391;SDS011;47261;52.892;5.738;2022-09-12T13:31:44;17.40;;;8.85;;
61391;SDS011;47261;52.892;5.738;2022-09-12T13:34:15;13.02;;;7.10;;
61391;SDS011;47261;52.892;5.738;2022-09-12T13:39:45;14.52;;;9.20;;
61391;SDS011;47261;52.892;5.738;2022-09-12T13:42:27;13.45;;;8.20;;
61391;SDS011;47261;52.892;5.738;2022-09-12T13:45:25;18.38;;;9.35;;
61391;SDS011;47261;52.892;5.738;2022-09-12T13:47:52;16.77;;;9.10;;
61391;SDS011;47261;52.892;5.738;2022-09-12T13:50:31;14.40;;;7.03;;
61391;SDS011;47261;52.892;5.738;2022-09-12T13:53:12;12.80;;;6.22;;
61391;SDS011;47261;52.892;5.738;2022-09-12T13:55:48;16.20;;;10.32;;
61391;SDS011;47261;52.892;5.738;2022-09-12T13:58:23;19.13;;;10.80;;
61391;SDS011;47261;52.892;5.738;2022-09-12T14:04:09;19.73;;;9.50;;
61391;SDS011;47261;52.892;5.738;2022-09-12T14:06:56;20.20;;;12.18;;
61391;SDS011;47261;52.892;5.738;2022-09-12T14:09:29;24.27;;;14.25;;
61391;SDS011;47261;52.892;5.738;2022-09-12T14:12:22;24.00;;;15.30;;
61391;SDS011;47261;52.892;5.738;2022-09-12T14:15:03;23.77;;;14.00;;
61391;SDS011;47261;52.892;5.738;2022-09-12T14:17:34;20.83;;;13.73;;
61391;SDS011;47261;52.892;5.738;2022-09-12T14:20:14;18.95;;;11.40;;
61391;SDS011;47261;52.892;5.738;2022-09-12T14:22:42;23.17;;;14.43;;
61391;SDS011;47261;52.892;5.738;2022-09-12T14:25:15;23.77;;;13.52;;
61391;SDS011;47261;52.892;5.738;2022-09-12T14:27:47;25.15;;;14.40;;
61391;SDS011;47261;52.892;5.738;2022-09-12T14:30:20;20.73;;;10.73;;
61391;SDS011;47261;52.892;5.738;2022-09-12T14:35:41;20.58;;;12.45;;
61391;SDS011;47261;52.892;5.738;2022-09-12T14:40:41;20.23;;;11.77;;
61391;SDS011;47261;52.892;5.738;2022-09-12T14:43:30;20.80;;;12.03;;
61391;SDS011;47261;52.892;5.738;2022-09-12T14:46:02;20.88;;;10.68;;
61391;SDS011;47261;52.892;5.738;2022-09-12T14:48:43;19.33;;;12.10;;
61391;SDS011;47261;52.892;5.738;2022-09-12T14:51:21;18.20;;;11.43;;
61391;SDS011;47261;52.892;5.738;2022-09-12T14:53:51;17.63;;;11.18;;
61391;SDS011;47261;52.892;5.738;2022-09-12T14:56:19;15.63;;;9.73;;
61391;SDS011;47261;52.892;5.738;2022-09-12T14:58:46;19.13;;;10.25;;
61391;SDS011;47261;52.892;5.738;2022-09-12T15:09:11;14.82;;;9.13;;
61391;SDS011;47261;52.892;5.738;2022-09-12T15:11:37;16.00;;;8.38;;
61391;SDS011;47261;52.892;5.738;2022-09-12T15:14:13;12.48;;;7.75;;
61391;SDS011;47261;52.892;5.738;2022-09-12T15:16:39;14.33;;;7.70;;
61391;SDS011;47261;52.892;5.738;2022-09-12T15:19:05;11.57;;;7.72;;
61391;SDS011;47261;52.892;5.738;2022-09-12T15:21:31;14.48;;;8.38;;
61391;SDS011;47261;52.892;5.738;2022-09-12T15:23:56;17.00;;;7.03;;
61391;SDS011;47261;52.892;5.738;2022-09-12T15:26:23;12.07;;;6.97;;
61391;SDS011;47261;52.892;5.738;2022-09-12T15:28:51;12.35;;;8.02;;
61391;SDS011;47261;52.892;5.738;2022-09-12T15:31:24;13.93;;;7.20;;
61391;SDS011;47261;52.892;5.738;2022-09-12T15:33:50;12.00;;;7.13;;
61391;SDS011;47261;52.892;5.738;2022-09-12T15:36:17;12.60;;;7.55;;
61391;SDS011;47261;52.892;5.738;2022-09-12T15:38:45;11.30;;;6.87;;
61391;SDS011;47261;52.892;5.738;2022-09-12T15:41:18;12.38;;;6.28;;
61391;SDS011;47261;52.892;5.738;2022-09-12T15:43:50;12.27;;;6.80;;
61391;SDS011;47261;52.892;5.738;2022-09-12T15:46:16;12.95;;;7.50;;
61391;SDS011;47261;52.892;5.738;2022-09-12T15:48:43;10.63;;;6.73;;
61391;SDS011;47261;52.892;5.738;2022-09-12T15:51:13;12.18;;;6.88;;
61391;SDS011;47261;52.892;5.738;2022-09-12T15:53:41;11.82;;;6.28;;
61391;SDS011;47261;52.892;5.738;2022-09-12T15:56:07;12.27;;;7.07;;
61391;SDS011;47261;52.892;5.738;2022-09-12T15:58:32;10.30;;;4.67;;
61391;SDS011;47261;52.892;5.738;2022-09-12T16:00:58;11.27;;;6.38;;
61391;SDS011;47261;52.892;5.738;2022-09-12T16:03:26;10.35;;;5.35;;
61391;SDS011;47261;52.892;5.738;2022-09-12T16:05:57;10.60;;;6.18;;
61391;SDS011;47261;52.892;5.738;2022-09-12T16:08:26;12.80;;;6.70;;
61391;SDS011;47261;52.892;5.738;2022-09-12T16:10:56;12.50;;;5.72;;
61391;SDS011;47261;52.892;5.738;2022-09-12T16:13:24;8.80;;;5.18;;
61391;SDS011;47261;52.892;5.738;2022-09-12T16:15:50;9.88;;;5.25;;
61391;SDS011;47261;52.892;5.738;2022-09-12T16:18:16;9.93;;;5.57;;
61391;SDS011;47261;52.892;5.738;2022-09-12T16:20:42;9.47;;;5.93;;
61391;SDS011;47261;52.892;5.738;2022-09-12T16:23:10;11.68;;;5.60;;
61391;SDS011;47261;52.892;5.738;2022-09-12T16:25:37;9.93;;;5.10;;
61391;SDS011;47261;52.892;5.738;2022-09-12T16:28:03;11.40;;;5.53;;
61391;SDS011;47261;52.892;5.738;2022-09-12T16:30:32;9.85;;;5.57;;
61391;SDS011;47261;52.892;5.738;2022-09-12T16:32:58;9.00;;;5.50;;
61391;SDS011;47261;52.892;5.738;2022-09-12T16:35:23;10.23;;;5.57;;
61391;SDS011;47261;52.892;5.738;2022-09-12T16:37:49;9.40;;;5.45;;
61391;SDS011;47261;52.892;5.738;2022-09-12T16:40:15;11.57;;;5.20;;
61391;SDS011;47261;52.892;5.738;2022-09-12T16:42:43;9.15;;;4.85;;
61391;SDS011;47261;52.892;5.738;2022-09-12T16:45:09;8.73;;;4.75;;
61391;SDS011;47261;52.892;5.738;2022-09-12T16:47:35;10.68;;;5.22;;
61391;SDS011;47261;52.892;5.738;2022-09-12T16:50:01;12.00;;;5.20;;
61391;SDS011;47261;52.892;5.738;2022-09-12T16:52:27;7.75;;;5.03;;
61391;SDS011;47261;52.892;5.738;2022-09-12T16:54:53;8.73;;;5.10;;
61391;SDS011;47261;52.892;5.738;2022-09-12T16:57:18;10.73;;;5.72;;
61391;SDS011;47261;52.892;5.738;2022-09-12T16:59:44;10.77;;;5.70;;
61391;SDS011;47261;52.892;5.738;2022-09-12T17:02:11;8.93;;;5.20;;
61391;SDS011;47261;52.892;5.738;2022-09-12T17:04:37;10.23;;;4.73;;
61391;SDS011;47261;52.892;5.738;2022-09-12T17:07:04;10.38;;;5.38;;
61391;SDS011;47261;52.892;5.738;2022-09-12T17:09:29;9.90;;;5.53;;
61391;SDS011;47261;52.892;5.738;2022-09-12T17:11:55;9.67;;;5.40;;
61391;SDS011;47261;52.892;5.738;2022-09-12T17:14:21;8.60;;;5.53;;
61391;SDS011;47261;52.892;5.738;2022-09-12T17:16:47;9.80;;;6.05;;
61391;SDS011;47261;52.892;5.738;2022-09-12T17:19:23;9.73;;;5.83;;